createdAt,value
2018-10-18T00:01:17.086Z,14.96
2018-10-18T00:03:47.103Z,14.95
2018-10-18T00:06:17.126Z,14.91
2018-10-18T00:08:53.704Z,14.92
2018-10-18T00:11:23.685Z,14.91
2018-10-18T00:13:53.709Z,14.91
2018-10-18T00:16:23.673Z,14.87
2018-10-18T00:18:53.637Z,14.92
2018-10-18T00:21:23.577Z,14.94
2018-10-18T00:23:53.545Z,14.90
2018-10-18T00:26:23.484Z,14.90
2018-10-18T00:28:53.520Z,14.89
2018-10-18T00:31:23.443Z,14.89
2018-10-18T00:33:53.457Z,14.88
2018-10-18T00:36:23.376Z,14.89
2018-10-18T00:38:53.310Z,14.88
2018-10-18T00:41:23.411Z,14.89
2018-10-18T00:43:53.474Z,14.87
2018-10-18T00:46:23.411Z,14.89
2018-10-18T00:48:53.384Z,14.89
2018-10-18T00:51:23.361Z,14.87
2018-10-18T00:53:53.317Z,14.88
2018-10-18T00:56:23.279Z,14.87
2018-10-18T00:58:53.311Z,14.86
2018-10-18T01:01:23.374Z,14.86
2018-10-18T01:03:53.303Z,14.85
2018-10-18T01:06:23.315Z,14.84
2018-10-18T01:08:53.255Z,14.84
2018-10-18T01:11:23.212Z,14.82
2018-10-18T01:13:53.127Z,14.83
2018-10-18T01:16:23.062Z,14.81
2018-10-18T01:18:53.103Z,14.81
2018-10-18T01:21:23.112Z,14.78
2018-10-18T01:23:53.204Z,14.77
2018-10-18T01:26:23.139Z,14.79
2018-10-18T01:28:53.160Z,14.78
2018-10-18T01:31:23.151Z,14.77
2018-10-18T01:33:53.131Z,14.76
2018-10-18T01:36:23.077Z,14.76
2018-10-18T01:38:53.174Z,14.74
2018-10-18T01:41:23.133Z,14.73
2018-10-18T01:43:53.178Z,14.73
2018-10-18T01:46:23.169Z,14.69
2018-10-18T01:48:53.141Z,14.67
2018-10-18T01:51:23.074Z,14.66
2018-10-18T01:53:53.143Z,14.62
2018-10-18T01:56:23.063Z,14.60
2018-10-18T01:58:53.019Z,14.57
2018-10-18T02:01:23.039Z,14.54
2018-10-18T02:03:52.988Z,14.51
2018-10-18T02:06:23.074Z,14.49
2018-10-18T02:08:53.014Z,14.52
2018-10-18T02:11:22.961Z,14.52
2018-10-18T02:13:53.007Z,14.52
2018-10-18T02:16:22.950Z,14.54
2018-10-18T02:18:52.885Z,14.58
2018-10-18T02:21:22.931Z,14.57
2018-10-18T02:23:52.878Z,14.54
2018-10-18T02:26:22.882Z,14.56
2018-10-18T02:28:52.868Z,14.53
2018-10-18T02:31:22.923Z,14.49
2018-10-18T02:33:52.911Z,14.46
2018-10-18T02:36:22.896Z,14.48
2018-10-18T02:38:52.817Z,14.47
2018-10-18T02:41:22.814Z,14.45
2018-10-18T02:43:52.711Z,14.43
2018-10-18T02:46:22.688Z,14.43
2018-10-18T02:48:52.691Z,14.40
2018-10-18T02:51:23.356Z,14.36
2018-10-18T02:53:53.312Z,14.35
2018-10-18T02:56:23.363Z,14.32
2018-10-18T02:58:53.375Z,14.30
2018-10-18T03:01:23.323Z,14.28
2018-10-18T03:03:53.247Z,14.27
2018-10-18T03:06:23.263Z,14.26
2018-10-18T03:08:53.176Z,14.26
2018-10-18T03:11:23.195Z,14.26
2018-10-18T03:13:53.115Z,14.25
2018-10-18T03:16:23.029Z,14.27
2018-10-18T03:18:53.072Z,14.27
2018-10-18T03:21:22.992Z,14.28
2018-10-18T03:23:52.924Z,14.26
2018-10-18T03:26:22.912Z,14.29
2018-10-18T03:28:52.907Z,14.26
2018-10-18T03:31:22.904Z,14.28
2018-10-18T03:33:52.819Z,14.30
2018-10-18T03:36:22.897Z,14.32
2018-10-18T03:38:52.826Z,14.32
2018-10-18T03:41:22.875Z,14.31
2018-10-18T03:43:52.817Z,14.28
2018-10-18T03:46:23.618Z,14.29
2018-10-18T03:48:53.523Z,14.30
2018-10-18T03:51:23.470Z,14.29
2018-10-18T03:53:53.422Z,14.30
2018-10-18T03:56:23.404Z,14.29
2018-10-18T03:58:53.344Z,14.30
2018-10-18T04:01:23.307Z,14.30
2018-10-18T04:03:53.219Z,14.29
2018-10-18T04:06:23.097Z,14.29
2018-10-18T04:08:53.063Z,14.26
2018-10-18T04:11:22.986Z,14.26
2018-10-18T04:13:52.912Z,14.27
2018-10-18T04:16:22.893Z,14.26
2018-10-18T04:18:52.844Z,14.25
2018-10-18T04:21:22.849Z,14.28
2018-10-18T04:23:52.841Z,14.27
2018-10-18T04:26:22.807Z,14.28
2018-10-18T04:28:52.766Z,14.28
2018-10-18T04:31:22.681Z,14.25
2018-10-18T04:33:52.885Z,14.26
2018-10-18T04:36:22.817Z,14.25
2018-10-18T04:38:52.945Z,14.22
2018-10-18T04:41:22.910Z,14.21
2018-10-18T04:43:52.875Z,14.18
2018-10-18T04:46:22.897Z,14.17
2018-10-18T04:48:53.001Z,14.19
2018-10-18T04:51:22.855Z,14.17
2018-10-18T04:53:52.854Z,14.12
2018-10-18T04:56:22.899Z,14.11
2018-10-18T04:58:52.827Z,14.08
2018-10-18T05:01:22.909Z,14.11
2018-10-18T05:03:52.799Z,14.10
2018-10-18T05:06:22.784Z,14.08
2018-10-18T05:08:52.710Z,14.09
2018-10-18T05:11:22.735Z,14.06
2018-10-18T05:13:52.622Z,14.03
2018-10-18T05:16:22.641Z,13.99
2018-10-18T05:18:52.566Z,13.93
2018-10-18T05:21:22.519Z,13.92
2018-10-18T05:23:52.548Z,13.90
2018-10-18T05:26:22.536Z,13.85
2018-10-18T05:28:52.524Z,13.82
2018-10-18T05:31:22.458Z,13.80
2018-10-18T05:33:52.526Z,13.81
2018-10-18T05:36:22.496Z,13.79
2018-10-18T05:38:52.518Z,13.76
2018-10-18T05:41:22.466Z,13.74
2018-10-18T05:43:52.425Z,13.77
2018-10-18T05:46:22.470Z,13.79
2018-10-18T05:48:52.462Z,13.81
2018-10-18T05:51:22.532Z,13.85
2018-10-18T05:53:52.872Z,13.89
2018-10-18T05:56:23.288Z,13.94
2018-10-18T05:58:53.850Z,13.99
2018-10-18T06:01:24.159Z,14.04
2018-10-18T06:03:54.658Z,14.16
2018-10-18T06:06:24.992Z,14.24
2018-10-18T06:08:55.456Z,14.30
2018-10-18T06:11:29.055Z,14.41
2018-10-18T06:13:59.504Z,14.45
2018-10-18T06:16:29.643Z,14.53
2018-10-18T06:19:00.223Z,14.58
2018-10-18T06:21:30.598Z,14.70
2018-10-18T06:24:01.027Z,14.73
2018-10-18T06:26:31.332Z,14.78
2018-10-18T06:29:01.389Z,14.85
2018-10-18T06:31:31.824Z,14.96
2018-10-18T06:34:03.288Z,15.01
2018-10-18T06:36:33.299Z,15.07
2018-10-18T06:39:03.553Z,15.13
2018-10-18T06:41:33.854Z,15.21
2018-10-18T06:44:03.928Z,15.28
2018-10-18T06:46:33.886Z,15.34
2018-10-18T06:49:04.151Z,15.46
2018-10-18T06:51:34.571Z,15.54
2018-10-18T06:54:04.902Z,15.56
2018-10-18T06:56:35.119Z,15.67
2018-10-18T06:59:05.567Z,15.67
2018-10-18T07:01:36.048Z,15.72
2018-10-18T07:04:06.628Z,15.81
2018-10-18T07:06:37.105Z,15.84
2018-10-18T07:09:11.259Z,15.86
2018-10-18T07:11:41.643Z,15.83
2018-10-18T07:14:12.028Z,15.82
2018-10-18T07:16:42.440Z,15.89
2018-10-18T07:19:12.830Z,15.95
2018-10-18T07:21:43.036Z,15.96
2018-10-18T07:24:13.557Z,16.01
2018-10-18T07:26:43.986Z,16.04
2018-10-18T07:29:14.032Z,16.06
2018-10-18T07:31:43.973Z,16.02
2018-10-18T07:34:14.019Z,16.08
2018-10-18T07:36:43.976Z,16.18
2018-10-18T07:39:15.431Z,16.28
2018-10-18T07:41:45.443Z,16.41
2018-10-18T07:44:16.546Z,16.49
2018-10-18T07:46:47.579Z,16.57
2018-10-18T07:49:18.381Z,16.64
2018-10-18T07:51:49.004Z,16.78
2018-10-18T07:54:19.297Z,16.87
2018-10-18T07:56:49.663Z,16.99
2018-10-18T07:59:20.094Z,17.07
2018-10-18T08:01:50.400Z,17.16
2018-10-18T08:04:20.879Z,17.24
2018-10-18T08:06:51.107Z,17.32
2018-10-18T08:09:21.705Z,17.41
2018-10-18T08:11:52.112Z,17.55
2018-10-18T08:14:22.666Z,17.65
2018-10-18T08:16:53.138Z,17.74
2018-10-18T08:19:23.316Z,17.83
2018-10-18T08:21:53.681Z,17.94
2018-10-18T08:24:24.292Z,18.12
2018-10-18T08:26:54.513Z,18.20
2018-10-18T08:29:24.931Z,18.31
2018-10-18T08:31:55.335Z,18.45
2018-10-18T08:34:25.527Z,18.54
2018-10-18T08:36:55.861Z,18.66
2018-10-18T08:39:25.903Z,18.75
2018-10-18T08:41:55.855Z,18.76
2018-10-18T08:44:26.184Z,18.77
2018-10-18T08:46:56.065Z,18.92
2018-10-18T08:49:26.046Z,19.14
2018-10-18T08:51:55.969Z,19.23
2018-10-18T08:54:25.904Z,19.31
2018-10-18T08:56:55.874Z,19.41
2018-10-18T08:59:25.917Z,19.56
2018-10-18T09:01:55.759Z,19.86
2018-10-18T09:04:25.731Z,20.04
2018-10-18T09:06:55.671Z,20.37
2018-10-18T09:09:25.648Z,20.65
2018-10-18T09:11:55.590Z,20.89
2018-10-18T09:14:25.751Z,21.15
2018-10-18T09:16:55.690Z,21.28
2018-10-18T09:19:25.670Z,21.29
2018-10-18T09:21:55.693Z,21.55
2018-10-18T09:24:25.639Z,21.80
2018-10-18T09:26:55.954Z,22.06
2018-10-18T09:29:26.484Z,22.21
2018-10-18T09:31:56.884Z,22.42
2018-10-18T09:34:27.335Z,22.57
2018-10-18T09:36:57.709Z,22.67
2018-10-18T09:39:28.157Z,22.81
2018-10-18T09:41:58.568Z,23.14
2018-10-18T09:44:28.972Z,23.35
2018-10-18T09:46:59.292Z,23.49
2018-10-18T09:49:29.761Z,23.66
2018-10-18T09:52:00.145Z,23.61
2018-10-18T09:54:30.649Z,23.77
2018-10-18T09:57:01.135Z,23.99
2018-10-18T09:59:31.520Z,24.37
2018-10-18T10:02:07.521Z,24.74
2018-10-18T10:04:37.955Z,24.87
2018-10-18T10:07:08.499Z,24.92
2018-10-18T10:09:39.730Z,24.88
2018-10-18T10:12:10.152Z,25.06
2018-10-18T10:14:40.614Z,25.36
2018-10-18T10:17:10.891Z,25.77
2018-10-18T10:19:41.352Z,26.20
2018-10-18T10:22:11.748Z,26.46
2018-10-18T10:24:42.062Z,26.63
2018-10-18T10:27:12.476Z,26.74
2018-10-18T10:29:42.983Z,27.04
2018-10-18T10:32:13.561Z,27.35
2018-10-18T10:34:43.826Z,27.70
2018-10-18T10:37:14.244Z,28.14
2018-10-18T10:39:44.581Z,28.51
2018-10-18T10:42:15.303Z,28.95
2018-10-18T10:44:45.667Z,29.49
2018-10-18T10:47:15.665Z,29.55
2018-10-18T10:49:45.601Z,30.19
2018-10-18T10:52:15.662Z,30.00
2018-10-18T10:54:46.102Z,29.94
2018-10-18T10:57:16.431Z,29.63
2018-10-18T10:59:46.347Z,29.21
2018-10-18T11:02:16.416Z,28.97
2018-10-18T11:04:46.330Z,28.69
2018-10-18T11:07:16.337Z,28.63
2018-10-18T11:09:46.801Z,29.06
2018-10-18T11:12:17.199Z,30.60
2018-10-18T11:14:47.626Z,32.58
2018-10-18T11:17:17.939Z,35.53
2018-10-18T11:19:48.281Z,38.38
2018-10-18T11:22:18.645Z,39.67
2018-10-18T11:24:50.063Z,40.64
2018-10-18T11:27:20.711Z,40.90
2018-10-18T11:29:51.692Z,39.47
2018-10-18T11:32:22.948Z,39.73
2018-10-18T11:34:53.285Z,41.53
2018-10-18T11:37:23.769Z,41.40
2018-10-18T11:39:55.119Z,42.66
2018-10-18T11:42:25.725Z,42.41
2018-10-18T11:44:56.015Z,41.87
2018-10-18T11:47:27.377Z,40.22
2018-10-18T11:49:57.582Z,39.77
2018-10-18T11:52:27.912Z,40.08
2018-10-18T11:54:59.676Z,39.35
2018-10-18T11:57:30.590Z,38.01
2018-10-18T12:00:00.571Z,37.00
2018-10-18T12:02:30.695Z,35.78
2018-10-18T12:05:00.710Z,35.30
2018-10-18T12:07:30.703Z,34.83
2018-10-18T12:10:00.669Z,33.03
2018-10-18T12:12:30.636Z,32.03
2018-10-18T12:15:00.607Z,31.25
2018-10-18T12:17:30.644Z,30.94
2018-10-18T12:20:00.607Z,31.32
2018-10-18T12:22:30.555Z,31.41
2018-10-18T12:25:00.470Z,31.20
2018-10-18T12:27:30.587Z,31.77
2018-10-18T12:30:00.555Z,33.25
2018-10-18T12:32:30.550Z,35.89
2018-10-18T12:35:00.552Z,36.42
2018-10-18T12:37:30.662Z,35.29
2018-10-18T12:40:00.986Z,35.41
2018-10-18T12:42:31.342Z,35.40
2018-10-18T12:45:01.281Z,35.61
2018-10-18T12:47:31.307Z,36.46
2018-10-18T12:50:01.292Z,38.19
2018-10-18T12:52:31.237Z,39.98
2018-10-18T12:55:01.338Z,41.17
2018-10-18T12:57:31.409Z,42.08
2018-10-18T13:00:01.458Z,42.64
2018-10-18T13:02:31.516Z,42.18
2018-10-18T13:05:01.549Z,42.73
2018-10-18T13:07:31.523Z,42.60
2018-10-18T13:10:01.460Z,41.61
2018-10-18T13:12:31.984Z,40.02
2018-10-18T13:15:02.228Z,39.48
2018-10-18T13:17:32.568Z,39.80
2018-10-18T13:20:02.532Z,39.76
2018-10-18T13:22:32.414Z,39.49
2018-10-18T13:25:02.410Z,39.00
2018-10-18T13:27:32.389Z,38.94
2018-10-18T13:30:02.440Z,38.75
2018-10-18T13:32:32.341Z,39.16
2018-10-18T13:35:02.378Z,38.13
2018-10-18T13:37:32.775Z,38.38
2018-10-18T13:40:03.577Z,38.62
2018-10-18T13:42:33.907Z,39.97
2018-10-18T13:45:04.745Z,41.25
2018-10-18T13:47:35.307Z,42.03
2018-10-18T13:50:06.121Z,41.90
2018-10-18T13:52:36.867Z,40.56
2018-10-18T13:55:08.310Z,40.10
2018-10-18T13:57:38.726Z,40.14
2018-10-18T14:00:30.805Z,39.89
2018-10-18T14:03:01.280Z,38.71
2018-10-18T14:05:31.818Z,38.58
2018-10-18T14:08:02.129Z,38.77
2018-10-18T14:10:32.513Z,37.58
2018-10-18T14:13:03.115Z,37.76
2018-10-18T14:15:33.596Z,35.93
2018-10-18T14:18:03.913Z,34.55
2018-10-18T14:20:34.600Z,34.05
2018-10-18T14:23:05.699Z,32.87
2018-10-18T14:25:36.027Z,33.21
2018-10-18T14:28:06.636Z,33.34
2018-10-18T14:30:36.996Z,31.91
2018-10-18T14:33:07.036Z,31.33
2018-10-18T14:35:36.999Z,31.15
2018-10-18T14:38:07.050Z,31.56
2018-10-18T14:40:36.981Z,31.62
2018-10-18T14:43:07.274Z,31.82
2018-10-18T14:45:37.242Z,31.57
2018-10-18T14:48:07.356Z,31.10
2018-10-18T14:50:37.496Z,30.97
2018-10-18T14:53:07.580Z,31.05
2018-10-18T14:55:37.475Z,30.66
2018-10-18T14:58:07.627Z,30.58
2018-10-18T15:00:38.551Z,30.33
2018-10-18T15:03:08.594Z,29.62
2018-10-18T15:05:38.584Z,29.49
2018-10-18T15:08:08.592Z,29.06
2018-10-18T15:10:38.533Z,28.28
2018-10-18T15:13:08.498Z,28.33
2018-10-18T15:15:38.538Z,28.17
2018-10-18T15:18:08.455Z,27.93
2018-10-18T15:20:38.456Z,27.72
2018-10-18T15:23:08.468Z,27.28
2018-10-18T15:25:38.526Z,26.98
2018-10-18T15:28:08.404Z,26.45
2018-10-18T15:30:39.225Z,25.70
2018-10-18T15:33:09.219Z,25.69
2018-10-18T15:35:39.215Z,25.54
2018-10-18T15:38:09.281Z,25.41
2018-10-18T15:40:39.449Z,25.14
2018-10-18T15:43:09.434Z,24.75
2018-10-18T15:45:39.420Z,24.23
2018-10-18T15:48:09.487Z,23.85
2018-10-18T15:50:39.482Z,23.51
2018-10-18T15:53:09.559Z,23.22
2018-10-18T15:55:39.437Z,22.91
2018-10-18T15:58:09.439Z,22.65
2018-10-18T16:00:39.374Z,22.38
2018-10-18T16:03:09.433Z,22.25
2018-10-18T16:05:39.325Z,22.11
2018-10-18T16:08:09.494Z,21.89
2018-10-18T16:10:39.875Z,21.73
2018-10-18T16:13:10.381Z,21.63
2018-10-18T16:15:40.939Z,21.50
2018-10-18T16:18:11.267Z,21.40
2018-10-18T16:20:41.672Z,21.18
2018-10-18T16:23:12.351Z,21.00
2018-10-18T16:25:42.552Z,20.86
2018-10-18T16:28:13.104Z,20.71
2018-10-18T16:30:43.458Z,20.56
2018-10-18T16:33:13.815Z,20.33
2018-10-18T16:35:44.246Z,20.25
2018-10-18T16:38:14.768Z,20.22
2018-10-18T16:40:44.968Z,20.12
2018-10-18T16:43:15.448Z,20.09
2018-10-18T16:45:45.779Z,20.03
2018-10-18T16:48:16.635Z,20.04
2018-10-18T16:50:47.065Z,19.98
2018-10-18T16:53:17.484Z,20.01
2018-10-18T16:55:47.790Z,19.93
2018-10-18T16:58:18.323Z,19.88
2018-10-18T17:00:48.712Z,19.83
2018-10-18T17:03:19.262Z,19.71
2018-10-18T17:05:49.635Z,19.68
2018-10-18T17:08:20.088Z,19.60
2018-10-18T17:10:50.343Z,19.52
2018-10-18T17:13:20.913Z,19.49
2018-10-18T17:15:51.055Z,19.36
2018-10-18T17:18:21.463Z,19.20
2018-10-18T17:20:52.060Z,19.12
2018-10-18T17:23:22.680Z,19.04
2018-10-18T17:25:52.995Z,18.98
2018-10-18T17:28:23.695Z,18.85
2018-10-18T17:30:54.256Z,18.83
2018-10-18T17:33:24.846Z,18.70
2018-10-18T17:35:55.378Z,18.65
2018-10-18T17:38:25.774Z,18.55
2018-10-18T17:40:56.022Z,18.66
2018-10-18T17:43:26.403Z,18.61
2018-10-18T17:45:56.805Z,18.56
2018-10-18T17:48:27.138Z,18.54
2018-10-18T17:50:57.503Z,18.45
2018-10-18T17:53:27.818Z,18.43
2018-10-18T17:55:58.026Z,18.36
2018-10-18T17:58:28.707Z,18.31
2018-10-18T18:00:59.289Z,18.32
2018-10-18T18:03:29.765Z,18.22
2018-10-18T18:06:00.300Z,18.13
2018-10-18T18:08:30.827Z,18.10
2018-10-18T18:11:01.146Z,18.09
2018-10-18T18:13:31.592Z,18.12
2018-10-18T18:16:02.111Z,18.03
2018-10-18T18:18:32.524Z,17.88
2018-10-18T18:21:03.114Z,17.83
2018-10-18T18:23:33.356Z,17.78
2018-10-18T18:26:03.778Z,17.77
2018-10-18T18:28:34.372Z,17.84
2018-10-18T18:31:04.719Z,17.73
2018-10-18T18:33:35.163Z,17.66
2018-10-18T18:36:05.692Z,17.63
2018-10-18T18:38:36.070Z,17.63
2018-10-18T18:41:06.479Z,17.73
2018-10-18T18:43:36.803Z,17.73
2018-10-18T18:46:06.851Z,17.69
2018-10-18T18:48:37.002Z,17.77
2018-10-18T18:51:07.694Z,17.68
2018-10-18T18:53:37.953Z,17.69
2018-10-18T18:56:08.143Z,17.57
2018-10-18T18:58:38.760Z,17.47
2018-10-18T19:01:09.223Z,17.44
2018-10-18T19:03:39.686Z,17.43
2018-10-18T19:06:10.129Z,17.42
2018-10-18T19:08:40.574Z,17.42
2018-10-18T19:11:10.968Z,17.45
2018-10-18T19:13:41.393Z,17.41
2018-10-18T19:16:11.780Z,17.38
2018-10-18T19:18:42.062Z,17.33
2018-10-18T19:21:12.499Z,17.29
2018-10-18T19:23:42.884Z,17.30
2018-10-18T19:26:13.445Z,17.29
2018-10-18T19:28:43.751Z,17.36
2018-10-18T19:31:14.063Z,17.35
2018-10-18T19:33:44.548Z,17.30
2018-10-18T19:36:14.851Z,17.23
2018-10-18T19:38:45.378Z,17.20
2018-10-18T19:41:15.779Z,17.20
2018-10-18T19:43:46.932Z,17.17
2018-10-18T19:46:17.418Z,17.15
2018-10-18T19:48:47.979Z,17.08
2018-10-18T19:51:18.318Z,17.05
2018-10-18T19:53:48.634Z,17.05
2018-10-18T19:56:19.135Z,16.96
2018-10-18T19:58:49.608Z,16.92
2018-10-18T20:01:20.145Z,17.13
2018-10-18T20:03:50.527Z,17.00
2018-10-18T20:06:21.139Z,16.85
2018-10-18T20:08:51.551Z,16.74
2018-10-18T20:11:21.547Z,16.64
2018-10-18T20:13:51.569Z,16.66
2018-10-18T20:16:21.611Z,16.65
2018-10-18T20:18:51.620Z,16.78
2018-10-18T20:21:21.566Z,16.77
2018-10-18T20:23:52.006Z,16.77
2018-10-18T20:26:22.569Z,16.72
2018-10-18T20:28:52.925Z,16.72
2018-10-18T20:31:23.410Z,16.78
2018-10-18T20:33:53.860Z,16.84
2018-10-18T20:36:24.211Z,16.87
2018-10-18T20:38:54.774Z,16.89
2018-10-18T20:41:25.087Z,16.92
2018-10-18T20:43:55.389Z,16.91
2018-10-18T20:46:25.853Z,16.92
2018-10-18T20:48:56.330Z,16.91
2018-10-18T20:51:26.694Z,16.90
2018-10-18T20:53:56.717Z,16.90
2018-10-18T20:56:26.665Z,16.87
2018-10-18T20:58:56.659Z,16.82
2018-10-18T21:01:26.644Z,16.77
2018-10-18T21:03:56.708Z,16.75
2018-10-18T21:06:27.309Z,16.76
2018-10-18T21:08:57.287Z,16.69
2018-10-18T21:11:27.243Z,16.72
2018-10-18T21:13:57.175Z,16.72
2018-10-18T21:16:27.233Z,16.71
2018-10-18T21:18:57.229Z,16.93
2018-10-18T21:21:27.222Z,16.98
2018-10-18T21:23:57.202Z,16.88
2018-10-18T21:26:27.214Z,16.74
2018-10-18T21:28:57.168Z,16.69
2018-10-18T21:31:27.121Z,16.65
2018-10-18T21:33:57.141Z,16.65
2018-10-18T21:36:27.175Z,16.60
2018-10-18T21:38:57.127Z,16.62
2018-10-18T21:41:27.160Z,16.75
2018-10-18T21:43:57.165Z,16.72
2018-10-18T21:46:27.118Z,16.59
2018-10-18T21:48:57.118Z,16.54
2018-10-18T21:51:27.011Z,16.51
2018-10-18T21:53:56.992Z,16.46
2018-10-18T21:56:26.936Z,16.49
2018-10-18T21:58:56.954Z,16.42
2018-10-18T22:01:26.873Z,16.44
2018-10-18T22:03:56.884Z,16.45
2018-10-18T22:06:26.862Z,16.41
2018-10-18T22:08:56.921Z,16.45
2018-10-18T22:11:26.817Z,16.44
2018-10-18T22:13:56.720Z,16.48
2018-10-18T22:16:26.667Z,16.50
2018-10-18T22:18:56.580Z,16.55
2018-10-18T22:21:26.525Z,16.52
2018-10-18T22:23:56.542Z,16.58
2018-10-18T22:26:26.535Z,16.55
2018-10-18T22:28:56.488Z,16.58
2018-10-18T22:31:26.542Z,16.56
2018-10-18T22:33:56.438Z,16.60
2018-10-18T22:36:26.705Z,16.64
2018-10-18T22:38:56.642Z,16.57
2018-10-18T22:41:26.625Z,16.51
2018-10-18T22:43:56.544Z,16.45
2018-10-18T22:46:26.502Z,16.37
2018-10-18T22:48:56.446Z,16.27
2018-10-18T22:51:26.832Z,16.21
2018-10-18T22:53:57.145Z,16.28
2018-10-18T22:56:27.358Z,16.26
2018-10-18T22:58:57.840Z,16.29
2018-10-18T23:01:28.227Z,16.23
2018-10-18T23:03:58.616Z,16.22
2018-10-18T23:06:29.085Z,16.21
2018-10-18T23:08:59.424Z,16.24
2018-10-18T23:11:29.935Z,16.23
2018-10-18T23:14:00.231Z,16.27
2018-10-18T23:16:30.877Z,16.21
2018-10-18T23:19:00.843Z,16.23
2018-10-18T23:21:30.791Z,16.19
2018-10-18T23:24:00.783Z,16.34
2018-10-18T23:26:31.074Z,16.22
2018-10-18T23:29:01.052Z,16.18
2018-10-18T23:31:30.970Z,16.17
2018-10-18T23:34:00.947Z,16.38
2018-10-18T23:36:30.868Z,16.37
2018-10-18T23:39:00.936Z,16.17
2018-10-18T23:41:30.826Z,16.11
2018-10-18T23:44:00.752Z,16.05
2018-10-18T23:46:30.698Z,16.05
2018-10-18T23:49:00.742Z,15.97
2018-10-18T23:51:30.742Z,15.95
2018-10-18T23:54:00.706Z,15.95
2018-10-18T23:56:30.666Z,15.94
2018-10-18T23:59:00.613Z,15.99
